N6KR PASI-KSEA
Flight info
| Callsign | N6KR |
|---|---|
| Flight time | 3h 5m |
| Altitude | 17000 |
| Route | TOKEE1 TOKEE V311 UDENE ANN VIXOR MARNR8 |
| Aircraft | B58T/L-SDFGRY/C |
Departure
| Time | 2026-04-17 01:53 |
|---|---|
| Airport | Sitka Rocky Gutierrez Airport (PASI) |
Arrival
| Time | 2026-04-17 04:59 |
|---|---|
| Airport | Seattle–Tacoma International Airport (KSEA) |
| Time | Latitude | Longitude | Altitude | Speed | Heading |
|---|---|---|---|---|---|
| 2026-04-17 01:45 | 57.05036 | -135.36303 | 31 ft | 0 kts | 134° |
| 2026-04-17 01:50 | 57.05035 | -135.36302 | 31 ft | 1 kts | 134° |
| 2026-04-17 01:50 | 57.05004 | -135.36324 | 31 ft | 9 kts | 250° |
| 2026-04-17 01:51 | 57.05035 | -135.36460 | 31 ft | 15 kts | 310° |
| 2026-04-17 01:51 | 57.05120 | -135.36629 | 32 ft | 20 kts | 317° |
| 2026-04-17 01:51 | 57.05235 | -135.36831 | 33 ft | 25 kts | 315° |
| 2026-04-17 01:51 | 57.05368 | -135.37083 | 33 ft | 30 kts | 309° |
| 2026-04-17 01:52 | 57.05383 | -135.37188 | 33 ft | 0 kts | 259° |
| 2026-04-17 01:52 | 57.05378 | -135.37211 | 33 ft | 9 kts | 237° |
| 2026-04-17 01:52 | 57.05298 | -135.37226 | 35 ft | 18 kts | 125° |
| 2026-04-17 01:52 | 57.05274 | -135.37177 | 34 ft | 0 kts | 137° |
| 2026-04-17 01:53 | 57.05142 | -135.36938 | 34 ft | 70 kts | 134° |
| 2026-04-17 01:53 | 57.04665 | -135.36073 | 139 ft | 112 kts | 140° |
| 2026-04-17 01:53 | 57.04074 | -135.35028 | 566 ft | 118 kts | 139° |
| 2026-04-17 01:53 | 57.03430 | -135.34132 | 995 ft | 120 kts | 139° |
| 2026-04-17 01:54 | 57.02831 | -135.33048 | 1356 ft | 125 kts | 152° |
| 2026-04-17 01:54 | 57.01981 | -135.32398 | 1635 ft | 140 kts | 165° |
| 2026-04-17 01:54 | 57.00980 | -135.32192 | 1941 ft | 150 kts | 184° |
| 2026-04-17 01:54 | 56.99948 | -135.32621 | 2287 ft | 155 kts | 204° |
| 2026-04-17 01:55 | 56.99006 | -135.33634 | 2650 ft | 159 kts | 214° |
| 2026-04-17 01:55 | 56.98061 | -135.34728 | 3001 ft | 161 kts | 212° |
| 2026-04-17 01:55 | 56.97114 | -135.35833 | 3299 ft | 162 kts | 213° |
| 2026-04-17 01:55 | 56.96159 | -135.36963 | 3599 ft | 164 kts | 214° |
| 2026-04-17 01:56 | 56.95201 | -135.38096 | 3880 ft | 164 kts | 214° |
| 2026-04-17 01:56 | 56.94241 | -135.39232 | 4176 ft | 164 kts | 215° |
| 2026-04-17 01:56 | 56.93282 | -135.40360 | 4467 ft | 164 kts | 215° |
| 2026-04-17 01:56 | 56.92288 | -135.41401 | 4765 ft | 166 kts | 206° |
| 2026-04-17 01:57 | 56.91197 | -135.42113 | 5055 ft | 168 kts | 199° |
| 2026-04-17 01:57 | 56.90042 | -135.42476 | 5335 ft | 170 kts | 189° |
| 2026-04-17 01:57 | 56.88866 | -135.42464 | 5618 ft | 173 kts | 179° |
| 2026-04-17 01:57 | 56.87673 | -135.42058 | 5906 ft | 176 kts | 169° |
| 2026-04-17 01:58 | 56.86525 | -135.41243 | 6193 ft | 179 kts | 158° |
| 2026-04-17 01:58 | 56.85429 | -135.40166 | 6479 ft | 179 kts | 157° |
| 2026-04-17 01:58 | 56.84325 | -135.39123 | 6764 ft | 179 kts | 158° |
| 2026-04-17 01:58 | 56.83218 | -135.38063 | 7036 ft | 180 kts | 158° |
| 2026-04-17 01:59 | 56.82106 | -135.36994 | 7308 ft | 181 kts | 157° |
| 2026-04-17 01:59 | 56.80989 | -135.35921 | 7581 ft | 181 kts | 158° |
| 2026-04-17 01:59 | 56.79879 | -135.34873 | 7854 ft | 179 kts | 158° |
| 2026-04-17 01:59 | 56.78779 | -135.33821 | 8121 ft | 178 kts | 158° |
| 2026-04-17 02:00 | 56.77679 | -135.32772 | 8395 ft | 178 kts | 158° |
| 2026-04-17 02:00 | 56.76581 | -135.31723 | 8679 ft | 179 kts | 158° |
| 2026-04-17 02:00 | 56.75569 | -135.30372 | 8965 ft | 186 kts | 133° |
| 2026-04-17 02:00 | 56.74783 | -135.28468 | 9267 ft | 189 kts | 130° |
| 2026-04-17 02:01 | 56.73971 | -135.26567 | 9567 ft | 191 kts | 131° |
| 2026-04-17 02:01 | 56.73155 | -135.24644 | 9849 ft | 193 kts | 131° |
| 2026-04-17 02:01 | 56.72337 | -135.22692 | 10109 ft | 194 kts | 131° |
| 2026-04-17 02:01 | 56.71517 | -135.20744 | 10356 ft | 194 kts | 131° |
| 2026-04-17 02:02 | 56.70687 | -135.18789 | 10606 ft | 196 kts | 131° |
| 2026-04-17 02:02 | 56.69853 | -135.16820 | 10855 ft | 197 kts | 130° |
| 2026-04-17 02:02 | 56.69011 | -135.14829 | 11104 ft | 199 kts | 130° |
| 2026-04-17 02:02 | 56.68161 | -135.12821 | 11360 ft | 201 kts | 130° |
| 2026-04-17 02:03 | 56.67302 | -135.10793 | 11618 ft | 205 kts | 129° |
| 2026-04-17 02:03 | 56.66424 | -135.08733 | 11882 ft | 205 kts | 131° |
| 2026-04-17 02:03 | 56.65540 | -135.06672 | 12145 ft | 208 kts | 129° |
| 2026-04-17 02:03 | 56.64658 | -135.04564 | 12411 ft | 211 kts | 129° |
| 2026-04-17 02:04 | 56.63757 | -135.02430 | 12669 ft | 215 kts | 129° |
| 2026-04-17 02:04 | 56.62839 | -135.00286 | 12925 ft | 215 kts | 129° |
| 2026-04-17 02:04 | 56.61917 | -134.98143 | 13202 ft | 216 kts | 129° |
| 2026-04-17 02:04 | 56.60995 | -134.95983 | 13473 ft | 217 kts | 129° |
| 2026-04-17 02:05 | 56.60066 | -134.93803 | 13753 ft | 220 kts | 128° |
| 2026-04-17 02:05 | 56.59125 | -134.91596 | 14007 ft | 221 kts | 127° |
| 2026-04-17 02:05 | 56.58175 | -134.89380 | 14252 ft | 223 kts | 128° |
| 2026-04-17 02:05 | 56.57218 | -134.87200 | 14513 ft | 221 kts | 127° |
| 2026-04-17 02:06 | 56.56283 | -134.84941 | 14749 ft | 226 kts | 127° |
| 2026-04-17 02:06 | 56.55324 | -134.82685 | 14997 ft | 225 kts | 129° |
| 2026-04-17 02:06 | 56.54343 | -134.80446 | 15246 ft | 229 kts | 129° |
| 2026-04-17 02:06 | 56.53365 | -134.78186 | 15503 ft | 227 kts | 128° |
| 2026-04-17 02:07 | 56.52396 | -134.75910 | 15754 ft | 230 kts | 128° |
| 2026-04-17 02:07 | 56.51410 | -134.73616 | 16003 ft | 231 kts | 128° |
| 2026-04-17 02:07 | 56.50424 | -134.71332 | 16270 ft | 232 kts | 129° |
| 2026-04-17 02:07 | 56.49429 | -134.69030 | 16532 ft | 232 kts | 129° |
| 2026-04-17 02:08 | 56.48435 | -134.66725 | 16801 ft | 234 kts | 129° |
| 2026-04-17 02:08 | 56.47431 | -134.64392 | 16995 ft | 239 kts | 129° |
| 2026-04-17 02:08 | 56.46381 | -134.61973 | 16996 ft | 250 kts | 130° |
| 2026-04-17 02:08 | 56.45293 | -134.59476 | 17003 ft | 256 kts | 129° |
| 2026-04-17 02:09 | 56.44561 | -134.57789 | 17000 ft | 256 kts | 129° |
| 2026-04-17 02:09 | 56.43461 | -134.55249 | 16994 ft | 256 kts | 129° |
| 2026-04-17 02:09 | 56.42364 | -134.52722 | 16996 ft | 256 kts | 129° |
| 2026-04-17 02:09 | 56.41264 | -134.50193 | 16996 ft | 255 kts | 129° |
| 2026-04-17 02:10 | 56.40168 | -134.47677 | 16998 ft | 255 kts | 129° |
| 2026-04-17 02:10 | 56.39070 | -134.45155 | 16998 ft | 255 kts | 129° |
| 2026-04-17 02:10 | 56.37975 | -134.42645 | 17000 ft | 255 kts | 129° |
| 2026-04-17 02:10 | 56.36878 | -134.40132 | 17000 ft | 255 kts | 129° |
| 2026-04-17 02:11 | 56.35779 | -134.37620 | 16998 ft | 255 kts | 129° |
| 2026-04-17 02:11 | 56.34677 | -134.35101 | 17002 ft | 255 kts | 129° |
| 2026-04-17 02:11 | 56.33579 | -134.32593 | 17000 ft | 255 kts | 129° |
| 2026-04-17 02:11 | 56.32481 | -134.30089 | 17003 ft | 255 kts | 130° |
| 2026-04-17 02:12 | 56.31386 | -134.27595 | 16994 ft | 255 kts | 130° |
| 2026-04-17 02:12 | 56.30279 | -134.25076 | 16995 ft | 255 kts | 130° |
| 2026-04-17 02:12 | 56.29180 | -134.22577 | 16996 ft | 255 kts | 130° |
| 2026-04-17 02:12 | 56.28079 | -134.20076 | 17004 ft | 255 kts | 130° |
| 2026-04-17 02:13 | 56.26978 | -134.17571 | 17000 ft | 255 kts | 129° |
| 2026-04-17 02:13 | 56.25873 | -134.15064 | 16994 ft | 255 kts | 129° |
| 2026-04-17 02:13 | 56.24768 | -134.12570 | 16991 ft | 255 kts | 130° |
| 2026-04-17 02:13 | 56.23663 | -134.10071 | 16994 ft | 255 kts | 129° |
| 2026-04-17 02:14 | 56.22560 | -134.07576 | 16990 ft | 255 kts | 129° |
| 2026-04-17 02:14 | 56.21453 | -134.05082 | 16988 ft | 256 kts | 129° |
| 2026-04-17 02:14 | 56.20343 | -134.02579 | 16992 ft | 257 kts | 129° |
| 2026-04-17 02:14 | 56.19229 | -134.00067 | 16990 ft | 257 kts | 129° |
| 2026-04-17 02:15 | 56.18114 | -133.97561 | 16987 ft | 257 kts | 129° |
| 2026-04-17 02:15 | 56.16998 | -133.95052 | 16987 ft | 257 kts | 129° |
| 2026-04-17 02:15 | 56.15884 | -133.92548 | 16999 ft | 257 kts | 129° |
| 2026-04-17 02:15 | 56.14767 | -133.90044 | 16997 ft | 257 kts | 129° |
| 2026-04-17 02:16 | 56.13650 | -133.87542 | 16995 ft | 257 kts | 129° |
| 2026-04-17 02:16 | 56.12534 | -133.85040 | 17002 ft | 257 kts | 129° |
| 2026-04-17 02:16 | 56.11420 | -133.82551 | 16999 ft | 256 kts | 129° |
| 2026-04-17 02:16 | 56.10307 | -133.80065 | 16995 ft | 256 kts | 129° |
| 2026-04-17 02:17 | 56.09185 | -133.77560 | 17000 ft | 257 kts | 129° |
| 2026-04-17 02:17 | 56.08069 | -133.75073 | 17000 ft | 257 kts | 129° |
| 2026-04-17 02:17 | 56.06950 | -133.72579 | 17000 ft | 257 kts | 129° |
| 2026-04-17 02:17 | 56.05828 | -133.70085 | 17000 ft | 257 kts | 129° |
| 2026-04-17 02:18 | 56.04710 | -133.67590 | 16997 ft | 257 kts | 129° |
| 2026-04-17 02:18 | 56.03587 | -133.65103 | 17000 ft | 257 kts | 129° |
| 2026-04-17 02:18 | 56.02464 | -133.62617 | 16998 ft | 257 kts | 129° |
| 2026-04-17 02:18 | 56.01344 | -133.60135 | 17000 ft | 257 kts | 129° |
| 2026-04-17 02:19 | 56.00221 | -133.57647 | 17010 ft | 257 kts | 129° |
| 2026-04-17 02:19 | 55.99098 | -133.55165 | 17005 ft | 257 kts | 129° |
| 2026-04-17 02:19 | 55.97979 | -133.52689 | 17005 ft | 255 kts | 129° |
| 2026-04-17 02:19 | 55.96863 | -133.50227 | 17004 ft | 256 kts | 129° |
| 2026-04-17 02:20 | 55.95740 | -133.47755 | 16999 ft | 257 kts | 129° |
| 2026-04-17 02:20 | 55.94615 | -133.45278 | 17000 ft | 256 kts | 129° |
| 2026-04-17 02:20 | 55.93494 | -133.42811 | 17008 ft | 256 kts | 129° |
| 2026-04-17 02:20 | 55.92367 | -133.40335 | 17004 ft | 257 kts | 129° |
| 2026-04-17 02:21 | 55.91242 | -133.37865 | 17010 ft | 257 kts | 129° |
| 2026-04-17 02:21 | 55.90116 | -133.35394 | 17019 ft | 256 kts | 129° |
| 2026-04-17 02:21 | 55.88990 | -133.32929 | 17018 ft | 256 kts | 129° |
| 2026-04-17 02:21 | 55.87865 | -133.30468 | 17009 ft | 256 kts | 129° |
| 2026-04-17 02:22 | 55.86738 | -133.28006 | 17003 ft | 256 kts | 129° |
| 2026-04-17 02:22 | 55.85612 | -133.25546 | 17011 ft | 256 kts | 129° |
| 2026-04-17 02:22 | 55.84486 | -133.23089 | 17006 ft | 256 kts | 129° |
| 2026-04-17 02:22 | 55.83361 | -133.20638 | 17007 ft | 256 kts | 129° |
| 2026-04-17 02:23 | 55.82235 | -133.18190 | 17006 ft | 256 kts | 129° |
| 2026-04-17 02:23 | 55.81109 | -133.15738 | 17007 ft | 256 kts | 129° |
| 2026-04-17 02:23 | 55.79982 | -133.13292 | 17007 ft | 256 kts | 129° |
| 2026-04-17 02:23 | 55.78854 | -133.10842 | 17018 ft | 256 kts | 129° |
| 2026-04-17 02:24 | 55.77724 | -133.08393 | 17013 ft | 256 kts | 129° |
| 2026-04-17 02:24 | 55.76597 | -133.05952 | 17019 ft | 256 kts | 129° |
| 2026-04-17 02:24 | 55.75465 | -133.03503 | 17014 ft | 256 kts | 129° |
| 2026-04-17 02:24 | 55.74336 | -133.01061 | 17016 ft | 256 kts | 129° |
| 2026-04-17 02:25 | 55.73203 | -132.98615 | 17018 ft | 256 kts | 129° |
| 2026-04-17 02:25 | 55.72071 | -132.96174 | 17022 ft | 257 kts | 129° |
| 2026-04-17 02:25 | 55.70937 | -132.93730 | 17025 ft | 257 kts | 129° |
| 2026-04-17 02:25 | 55.69803 | -132.91288 | 17017 ft | 257 kts | 129° |
| 2026-04-17 02:26 | 55.68666 | -132.88840 | 17017 ft | 257 kts | 129° |
| 2026-04-17 02:26 | 55.67531 | -132.86403 | 17022 ft | 256 kts | 129° |
| 2026-04-17 02:26 | 55.66395 | -132.83968 | 17024 ft | 256 kts | 129° |
| 2026-04-17 02:26 | 55.65259 | -132.81532 | 17017 ft | 256 kts | 129° |
| 2026-04-17 02:27 | 55.64125 | -132.79101 | 17018 ft | 256 kts | 129° |
| 2026-04-17 02:27 | 55.62988 | -132.76672 | 17022 ft | 255 kts | 129° |
| 2026-04-17 02:27 | 55.61854 | -132.74248 | 17020 ft | 257 kts | 129° |
| 2026-04-17 02:27 | 55.60720 | -132.71824 | 17016 ft | 256 kts | 129° |
| 2026-04-17 02:28 | 55.59585 | -132.69400 | 17021 ft | 255 kts | 129° |
| 2026-04-17 02:28 | 55.58451 | -132.66986 | 17020 ft | 255 kts | 129° |
| 2026-04-17 02:28 | 55.57316 | -132.64571 | 17021 ft | 255 kts | 129° |
| 2026-04-17 02:28 | 55.56183 | -132.62159 | 17020 ft | 255 kts | 129° |
| 2026-04-17 02:29 | 55.55049 | -132.59750 | 17016 ft | 256 kts | 129° |
| 2026-04-17 02:29 | 55.53913 | -132.57339 | 17011 ft | 256 kts | 129° |
| 2026-04-17 02:29 | 55.52775 | -132.54929 | 17011 ft | 255 kts | 129° |
| 2026-04-17 02:29 | 55.51643 | -132.52531 | 17011 ft | 255 kts | 129° |
| 2026-04-17 02:30 | 55.50509 | -132.50125 | 17013 ft | 255 kts | 129° |
| 2026-04-17 02:30 | 55.49373 | -132.47725 | 17015 ft | 255 kts | 129° |
| 2026-04-17 02:30 | 55.48233 | -132.45318 | 17016 ft | 256 kts | 129° |
| 2026-04-17 02:30 | 55.47093 | -132.42911 | 17014 ft | 256 kts | 129° |
| 2026-04-17 02:31 | 55.45969 | -132.40543 | 17017 ft | 255 kts | 129° |
| 2026-04-17 02:31 | 55.44831 | -132.38148 | 17015 ft | 255 kts | 129° |
| 2026-04-17 02:31 | 55.43695 | -132.35757 | 17015 ft | 254 kts | 129° |
| 2026-04-17 02:31 | 55.42559 | -132.33368 | 17014 ft | 255 kts | 129° |
| 2026-04-17 02:32 | 55.41422 | -132.30980 | 17010 ft | 255 kts | 129° |
| 2026-04-17 02:32 | 55.40283 | -132.28592 | 17011 ft | 255 kts | 129° |
| 2026-04-17 02:32 | 55.39141 | -132.26200 | 17009 ft | 255 kts | 129° |
| 2026-04-17 02:32 | 55.38002 | -132.23815 | 17012 ft | 254 kts | 129° |
| 2026-04-17 02:33 | 55.36867 | -132.21444 | 17018 ft | 254 kts | 129° |
| 2026-04-17 02:33 | 55.35726 | -132.19060 | 17018 ft | 255 kts | 129° |
| 2026-04-17 02:33 | 55.34581 | -132.16665 | 17022 ft | 255 kts | 129° |
| 2026-04-17 02:33 | 55.33428 | -132.14260 | 17023 ft | 255 kts | 129° |
| 2026-04-17 02:34 | 55.32299 | -132.11909 | 17022 ft | 255 kts | 129° |
| 2026-04-17 02:34 | 55.31158 | -132.09535 | 17021 ft | 254 kts | 129° |
| 2026-04-17 02:34 | 55.30019 | -132.07166 | 17022 ft | 255 kts | 129° |
| 2026-04-17 02:34 | 55.28873 | -132.04785 | 17023 ft | 255 kts | 129° |
| 2026-04-17 02:35 | 55.27728 | -132.02410 | 17026 ft | 255 kts | 129° |
| 2026-04-17 02:35 | 55.26583 | -132.00038 | 17027 ft | 255 kts | 129° |
| 2026-04-17 02:35 | 55.24284 | -131.95278 | 17028 ft | 256 kts | 129° |
| 2026-04-17 02:36 | 55.23135 | -131.92901 | 17029 ft | 256 kts | 129° |
| 2026-04-17 02:36 | 55.21988 | -131.90534 | 17029 ft | 255 kts | 129° |
| 2026-04-17 02:36 | 55.20836 | -131.88156 | 17029 ft | 255 kts | 129° |
| 2026-04-17 02:36 | 55.19688 | -131.85793 | 17028 ft | 255 kts | 129° |
| 2026-04-17 02:37 | 55.18541 | -131.83429 | 17026 ft | 255 kts | 129° |
| 2026-04-17 02:37 | 55.17388 | -131.81058 | 17025 ft | 255 kts | 129° |
| 2026-04-17 02:37 | 55.16235 | -131.78689 | 17025 ft | 255 kts | 129° |
| 2026-04-17 02:37 | 55.15083 | -131.76324 | 17024 ft | 255 kts | 129° |
| 2026-04-17 02:38 | 55.13932 | -131.73964 | 17026 ft | 255 kts | 129° |
| 2026-04-17 02:38 | 55.12779 | -131.71602 | 17025 ft | 255 kts | 129° |
| 2026-04-17 02:38 | 55.11628 | -131.69244 | 17023 ft | 255 kts | 129° |
| 2026-04-17 02:38 | 55.10473 | -131.66882 | 17023 ft | 255 kts | 129° |
| 2026-04-17 02:39 | 55.09319 | -131.64525 | 17022 ft | 256 kts | 129° |
| 2026-04-17 02:39 | 55.08164 | -131.62168 | 17021 ft | 256 kts | 129° |
| 2026-04-17 02:39 | 55.07006 | -131.59805 | 17021 ft | 256 kts | 129° |
| 2026-04-17 02:39 | 55.05825 | -131.57489 | 17017 ft | 256 kts | 136° |
| 2026-04-17 02:40 | 55.04489 | -131.55429 | 17020 ft | 256 kts | 139° |
| 2026-04-17 02:40 | 55.03150 | -131.53385 | 17020 ft | 256 kts | 139° |
| 2026-04-17 02:40 | 55.01819 | -131.51330 | 17019 ft | 256 kts | 139° |
| 2026-04-17 02:40 | 55.00485 | -131.49271 | 17019 ft | 256 kts | 139° |
| 2026-04-17 02:41 | 54.99154 | -131.47220 | 17016 ft | 256 kts | 139° |
| 2026-04-17 02:41 | 54.97817 | -131.45166 | 17016 ft | 256 kts | 139° |
| 2026-04-17 02:41 | 54.96489 | -131.43126 | 17025 ft | 256 kts | 139° |
| 2026-04-17 02:41 | 54.95146 | -131.41066 | 17025 ft | 256 kts | 139° |
| 2026-04-17 02:42 | 54.93810 | -131.39017 | 17025 ft | 256 kts | 139° |
| 2026-04-17 02:42 | 54.92475 | -131.36972 | 17021 ft | 256 kts | 139° |
| 2026-04-17 02:42 | 54.91138 | -131.34926 | 17022 ft | 256 kts | 139° |
| 2026-04-17 02:42 | 54.89798 | -131.32877 | 17021 ft | 256 kts | 139° |
| 2026-04-17 02:43 | 54.88463 | -131.30837 | 17027 ft | 256 kts | 139° |
| 2026-04-17 02:43 | 54.87126 | -131.28798 | 17027 ft | 256 kts | 139° |
| 2026-04-17 02:43 | 54.85789 | -131.26759 | 17027 ft | 256 kts | 139° |
| 2026-04-17 02:43 | 54.84450 | -131.24718 | 17026 ft | 256 kts | 139° |
| 2026-04-17 02:44 | 54.83114 | -131.22685 | 17026 ft | 256 kts | 139° |
| 2026-04-17 02:44 | 54.81783 | -131.20662 | 17026 ft | 256 kts | 139° |
| 2026-04-17 02:44 | 54.80440 | -131.18620 | 17034 ft | 256 kts | 139° |
| 2026-04-17 02:44 | 54.79099 | -131.16586 | 17035 ft | 256 kts | 139° |
| 2026-04-17 02:45 | 54.77761 | -131.14556 | 17032 ft | 256 kts | 139° |
| 2026-04-17 02:45 | 54.76423 | -131.12531 | 17032 ft | 256 kts | 139° |
| 2026-04-17 02:45 | 54.75082 | -131.10500 | 17032 ft | 256 kts | 139° |
| 2026-04-17 02:45 | 54.73745 | -131.08478 | 17032 ft | 256 kts | 139° |
| 2026-04-17 02:46 | 54.72404 | -131.06452 | 17037 ft | 256 kts | 138° |
| 2026-04-17 02:46 | 54.71067 | -131.04430 | 17036 ft | 256 kts | 139° |
| 2026-04-17 02:46 | 54.69723 | -131.02407 | 17036 ft | 256 kts | 139° |
| 2026-04-17 02:46 | 54.68386 | -131.00393 | 17036 ft | 256 kts | 139° |
| 2026-04-17 02:47 | 54.67039 | -130.98366 | 17037 ft | 256 kts | 139° |
| 2026-04-17 02:47 | 54.65699 | -130.96349 | 17037 ft | 256 kts | 139° |
| 2026-04-17 02:47 | 54.64356 | -130.94332 | 17037 ft | 256 kts | 139° |
| 2026-04-17 02:47 | 54.63013 | -130.92316 | 17037 ft | 256 kts | 139° |
| 2026-04-17 02:48 | 54.61673 | -130.90305 | 17038 ft | 256 kts | 139° |
| 2026-04-17 02:48 | 54.60326 | -130.88287 | 17037 ft | 256 kts | 139° |
| 2026-04-17 02:48 | 54.58979 | -130.86271 | 17039 ft | 256 kts | 139° |
| 2026-04-17 02:48 | 54.57633 | -130.84257 | 17040 ft | 257 kts | 139° |
| 2026-04-17 02:49 | 54.56283 | -130.82238 | 17039 ft | 257 kts | 139° |
| 2026-04-17 02:49 | 54.54932 | -130.80223 | 17041 ft | 257 kts | 139° |
| 2026-04-17 02:49 | 54.53584 | -130.78212 | 17044 ft | 256 kts | 139° |
| 2026-04-17 02:49 | 54.52237 | -130.76204 | 17044 ft | 256 kts | 139° |
| 2026-04-17 02:50 | 54.50890 | -130.74198 | 17047 ft | 256 kts | 139° |
| 2026-04-17 02:50 | 54.49998 | -130.72870 | 17048 ft | 256 kts | 139° |
| 2026-04-17 02:50 | 54.48651 | -130.70868 | 17049 ft | 256 kts | 139° |
| 2026-04-17 02:50 | 54.47304 | -130.68868 | 17050 ft | 256 kts | 139° |
| 2026-04-17 02:51 | 54.45957 | -130.66868 | 17051 ft | 256 kts | 139° |
| 2026-04-17 02:51 | 54.44609 | -130.64869 | 17052 ft | 256 kts | 139° |
| 2026-04-17 02:51 | 54.43260 | -130.62872 | 17053 ft | 256 kts | 139° |
| 2026-04-17 02:51 | 54.41911 | -130.60874 | 17054 ft | 256 kts | 139° |
| 2026-04-17 02:52 | 54.40565 | -130.58885 | 17055 ft | 256 kts | 139° |
| 2026-04-17 02:52 | 54.39211 | -130.56884 | 17056 ft | 256 kts | 139° |
| 2026-04-17 02:52 | 54.37862 | -130.54893 | 17057 ft | 256 kts | 139° |
| 2026-04-17 02:52 | 54.36509 | -130.52897 | 17058 ft | 256 kts | 139° |
| 2026-04-17 02:53 | 54.35155 | -130.50903 | 17059 ft | 257 kts | 139° |
| 2026-04-17 02:53 | 54.33802 | -130.48911 | 17059 ft | 257 kts | 139° |
| 2026-04-17 02:53 | 54.32448 | -130.46918 | 17058 ft | 256 kts | 139° |
| 2026-04-17 02:53 | 54.31096 | -130.44932 | 17059 ft | 256 kts | 139° |
| 2026-04-17 02:54 | 54.29744 | -130.42948 | 17055 ft | 256 kts | 139° |
| 2026-04-17 02:54 | 54.28391 | -130.40963 | 17055 ft | 256 kts | 139° |
| 2026-04-17 02:54 | 54.27038 | -130.38979 | 17055 ft | 257 kts | 139° |
| 2026-04-17 02:54 | 54.25675 | -130.36984 | 17054 ft | 257 kts | 139° |
| 2026-04-17 02:55 | 54.24317 | -130.34998 | 17055 ft | 257 kts | 139° |
| 2026-04-17 02:55 | 54.22960 | -130.33015 | 17055 ft | 256 kts | 139° |
| 2026-04-17 02:55 | 54.21604 | -130.31034 | 17052 ft | 256 kts | 139° |
| 2026-04-17 02:55 | 54.20249 | -130.29058 | 17054 ft | 256 kts | 139° |
| 2026-04-17 02:56 | 54.18892 | -130.27080 | 17053 ft | 256 kts | 139° |
| 2026-04-17 02:56 | 54.17539 | -130.25109 | 17054 ft | 256 kts | 139° |
| 2026-04-17 02:56 | 54.16181 | -130.23133 | 17052 ft | 257 kts | 139° |
| 2026-04-17 02:56 | 54.14819 | -130.21153 | 17055 ft | 256 kts | 139° |
| 2026-04-17 02:57 | 54.13463 | -130.19183 | 17051 ft | 255 kts | 139° |
| 2026-04-17 02:57 | 54.12116 | -130.17224 | 17058 ft | 254 kts | 140° |
| 2026-04-17 02:57 | 54.10769 | -130.15275 | 17057 ft | 255 kts | 140° |
| 2026-04-17 02:57 | 54.09419 | -130.13323 | 17060 ft | 254 kts | 140° |
| 2026-04-17 02:58 | 54.08072 | -130.11376 | 17062 ft | 254 kts | 140° |
| 2026-04-17 02:58 | 54.06728 | -130.09424 | 17063 ft | 254 kts | 140° |
| 2026-04-17 02:58 | 54.05377 | -130.07472 | 17062 ft | 255 kts | 140° |
| 2026-04-17 02:58 | 54.04022 | -130.05522 | 17056 ft | 255 kts | 140° |
| 2026-04-17 02:59 | 54.02666 | -130.03563 | 17061 ft | 256 kts | 140° |
| 2026-04-17 02:59 | 54.01327 | -130.01633 | 17064 ft | 256 kts | 140° |
| 2026-04-17 02:59 | 53.99948 | -129.99654 | 17065 ft | 256 kts | 140° |
| 2026-04-17 02:59 | 53.98588 | -129.97700 | 17058 ft | 255 kts | 140° |
| 2026-04-17 03:00 | 53.97237 | -129.95745 | 17062 ft | 255 kts | 139° |
| 2026-04-17 03:00 | 53.95903 | -129.93828 | 17063 ft | 256 kts | 140° |
| 2026-04-17 03:00 | 53.94544 | -129.91877 | 17064 ft | 256 kts | 139° |
| 2026-04-17 03:00 | 53.93191 | -129.89895 | 17052 ft | 258 kts | 140° |
| 2026-04-17 03:01 | 53.91803 | -129.87969 | 17061 ft | 258 kts | 141° |
| 2026-04-17 03:01 | 53.90409 | -129.86006 | 17063 ft | 256 kts | 140° |
| 2026-04-17 03:01 | 53.89070 | -129.84067 | 17057 ft | 256 kts | 139° |
| 2026-04-17 03:01 | 53.87716 | -129.82099 | 17054 ft | 256 kts | 140° |
| 2026-04-17 03:02 | 53.86349 | -129.80163 | 17045 ft | 255 kts | 141° |
| 2026-04-17 03:02 | 53.84988 | -129.78248 | 17058 ft | 254 kts | 141° |
| 2026-04-17 03:02 | 53.83645 | -129.76409 | 17066 ft | 249 kts | 140° |
| 2026-04-17 03:02 | 53.82329 | -129.74442 | 17045 ft | 252 kts | 138° |
| 2026-04-17 03:03 | 53.81007 | -129.72496 | 17046 ft | 252 kts | 140° |
| 2026-04-17 03:03 | 53.79653 | -129.70629 | 17048 ft | 249 kts | 143° |
| 2026-04-17 03:03 | 53.78306 | -129.68775 | 17053 ft | 251 kts | 139° |
| 2026-04-17 03:03 | 53.76990 | -129.66830 | 17044 ft | 252 kts | 139° |
| 2026-04-17 03:04 | 53.75652 | -129.64920 | 17044 ft | 252 kts | 141° |
| 2026-04-17 03:04 | 53.74293 | -129.63034 | 17043 ft | 253 kts | 141° |
| 2026-04-17 03:04 | 53.72934 | -129.61132 | 17047 ft | 253 kts | 140° |
| 2026-04-17 03:04 | 53.71586 | -129.59210 | 17036 ft | 255 kts | 140° |
| 2026-04-17 03:05 | 53.70232 | -129.57284 | 17043 ft | 254 kts | 140° |
| 2026-04-17 03:05 | 53.68889 | -129.55402 | 17057 ft | 252 kts | 141° |
| 2026-04-17 03:05 | 53.67527 | -129.53526 | 17049 ft | 251 kts | 140° |
| 2026-04-17 03:05 | 53.66189 | -129.51609 | 17045 ft | 252 kts | 139° |
| 2026-04-17 03:06 | 53.64860 | -129.49702 | 17040 ft | 252 kts | 140° |
| 2026-04-17 03:06 | 53.63502 | -129.47800 | 17038 ft | 253 kts | 140° |
| 2026-04-17 03:06 | 53.62148 | -129.45911 | 17042 ft | 254 kts | 140° |
| 2026-04-17 03:06 | 53.60787 | -129.43999 | 17042 ft | 254 kts | 141° |
| 2026-04-17 03:07 | 53.59422 | -129.42101 | 17044 ft | 255 kts | 140° |
| 2026-04-17 03:07 | 53.58064 | -129.40194 | 17047 ft | 255 kts | 140° |
| 2026-04-17 03:07 | 53.56702 | -129.38267 | 17040 ft | 255 kts | 140° |
| 2026-04-17 03:07 | 53.55337 | -129.36357 | 17044 ft | 255 kts | 141° |
| 2026-04-17 03:08 | 53.53964 | -129.34458 | 17039 ft | 257 kts | 140° |
| 2026-04-17 03:08 | 53.52590 | -129.32537 | 17041 ft | 256 kts | 140° |
| 2026-04-17 03:08 | 53.51221 | -129.30630 | 17044 ft | 255 kts | 140° |
| 2026-04-17 03:08 | 53.49855 | -129.28726 | 17044 ft | 255 kts | 140° |
| 2026-04-17 03:09 | 53.48498 | -129.26855 | 17049 ft | 253 kts | 140° |
| 2026-04-17 03:09 | 53.47144 | -129.24944 | 17043 ft | 254 kts | 140° |
| 2026-04-17 03:09 | 53.45788 | -129.23044 | 17042 ft | 254 kts | 140° |
| 2026-04-17 03:09 | 53.44429 | -129.21159 | 17044 ft | 254 kts | 141° |
| 2026-04-17 03:10 | 53.43062 | -129.19281 | 17044 ft | 254 kts | 141° |
| 2026-04-17 03:10 | 53.41695 | -129.17384 | 17045 ft | 255 kts | 140° |
| 2026-04-17 03:10 | 53.40334 | -129.15492 | 17043 ft | 256 kts | 140° |
| 2026-04-17 03:10 | 53.38959 | -129.13582 | 17026 ft | 256 kts | 141° |
| 2026-04-17 03:11 | 53.37577 | -129.11678 | 17008 ft | 257 kts | 141° |
| 2026-04-17 03:11 | 53.36197 | -129.09773 | 16994 ft | 256 kts | 140° |
| 2026-04-17 03:11 | 53.34827 | -129.07879 | 17005 ft | 256 kts | 141° |
| 2026-04-17 03:11 | 53.33452 | -129.05983 | 17002 ft | 255 kts | 141° |
| 2026-04-17 03:12 | 53.32082 | -129.04097 | 17002 ft | 255 kts | 141° |
| 2026-04-17 03:12 | 53.30717 | -129.02216 | 17005 ft | 255 kts | 141° |
| 2026-04-17 03:12 | 53.29343 | -129.00340 | 17010 ft | 253 kts | 141° |
| 2026-04-17 03:12 | 53.27981 | -128.98467 | 17006 ft | 253 kts | 141° |
| 2026-04-17 03:13 | 53.26623 | -128.96594 | 17005 ft | 254 kts | 140° |
| 2026-04-17 03:13 | 53.25269 | -128.94702 | 17008 ft | 255 kts | 141° |
| 2026-04-17 03:13 | 53.23892 | -128.92829 | 17007 ft | 254 kts | 141° |
| 2026-04-17 03:13 | 53.22511 | -128.90975 | 17004 ft | 254 kts | 141° |
| 2026-04-17 03:14 | 53.21155 | -128.89088 | 17009 ft | 254 kts | 140° |
| 2026-04-17 03:14 | 53.19797 | -128.87206 | 16998 ft | 253 kts | 141° |
| 2026-04-17 03:14 | 53.18425 | -128.85354 | 17009 ft | 252 kts | 141° |
| 2026-04-17 03:14 | 53.17069 | -128.83503 | 17016 ft | 253 kts | 141° |
| 2026-04-17 03:15 | 53.15701 | -128.81653 | 17013 ft | 253 kts | 142° |
| 2026-04-17 03:15 | 53.14337 | -128.79788 | 17014 ft | 254 kts | 140° |
| 2026-04-17 03:15 | 53.12993 | -128.77945 | 17010 ft | 252 kts | 141° |
| 2026-04-17 03:15 | 53.11624 | -128.76067 | 17017 ft | 253 kts | 141° |
| 2026-04-17 03:16 | 53.10266 | -128.74243 | 17011 ft | 253 kts | 141° |
| 2026-04-17 03:16 | 53.08901 | -128.72398 | 17018 ft | 254 kts | 141° |
| 2026-04-17 03:16 | 53.07529 | -128.70522 | 17011 ft | 255 kts | 141° |
| 2026-04-17 03:16 | 53.06162 | -128.68646 | 17010 ft | 255 kts | 140° |
| 2026-04-17 03:17 | 53.04790 | -128.66798 | 17010 ft | 255 kts | 141° |
| 2026-04-17 03:17 | 53.03407 | -128.64958 | 17010 ft | 255 kts | 141° |
| 2026-04-17 03:17 | 53.02042 | -128.63097 | 17017 ft | 255 kts | 141° |
| 2026-04-17 03:17 | 53.00663 | -128.61221 | 17009 ft | 255 kts | 140° |
| 2026-04-17 03:18 | 52.99281 | -128.59367 | 17008 ft | 256 kts | 141° |
| 2026-04-17 03:18 | 52.97902 | -128.57506 | 17017 ft | 256 kts | 141° |
| 2026-04-17 03:18 | 52.96527 | -128.55636 | 17008 ft | 257 kts | 141° |
| 2026-04-17 03:18 | 52.95136 | -128.53762 | 17010 ft | 258 kts | 141° |
| 2026-04-17 03:19 | 52.93732 | -128.51884 | 17008 ft | 259 kts | 141° |
| 2026-04-17 03:19 | 52.92335 | -128.50007 | 17007 ft | 258 kts | 141° |
| 2026-04-17 03:19 | 52.90945 | -128.48133 | 17005 ft | 258 kts | 141° |
| 2026-04-17 03:19 | 52.89555 | -128.46262 | 17006 ft | 257 kts | 141° |
| 2026-04-17 03:20 | 52.88164 | -128.44413 | 17009 ft | 256 kts | 141° |
| 2026-04-17 03:20 | 52.86777 | -128.42557 | 17011 ft | 256 kts | 141° |
| 2026-04-17 03:20 | 52.85399 | -128.40687 | 17009 ft | 257 kts | 141° |
| 2026-04-17 03:20 | 52.84005 | -128.38821 | 17009 ft | 257 kts | 141° |
| 2026-04-17 03:21 | 52.82611 | -128.36953 | 17009 ft | 259 kts | 141° |
| 2026-04-17 03:21 | 52.81202 | -128.35104 | 17002 ft | 258 kts | 142° |
| 2026-04-17 03:21 | 52.79813 | -128.33254 | 17007 ft | 257 kts | 140° |
| 2026-04-17 03:21 | 52.78427 | -128.31376 | 17003 ft | 257 kts | 141° |
| 2026-04-17 03:22 | 52.77035 | -128.29524 | 17003 ft | 257 kts | 141° |
| 2026-04-17 03:22 | 52.75641 | -128.27679 | 17005 ft | 257 kts | 141° |
| 2026-04-17 03:22 | 52.74248 | -128.25832 | 17005 ft | 257 kts | 141° |
| 2026-04-17 03:22 | 52.72858 | -128.23972 | 17011 ft | 258 kts | 141° |
| 2026-04-17 03:23 | 52.71463 | -128.22115 | 17006 ft | 258 kts | 141° |
| 2026-04-17 03:23 | 52.70067 | -128.20273 | 17006 ft | 258 kts | 141° |
| 2026-04-17 03:23 | 52.68665 | -128.18425 | 17007 ft | 257 kts | 141° |
| 2026-04-17 03:23 | 52.67274 | -128.16569 | 17009 ft | 257 kts | 141° |
| 2026-04-17 03:24 | 52.65880 | -128.14721 | 17005 ft | 257 kts | 141° |
| 2026-04-17 03:24 | 52.64480 | -128.12873 | 17000 ft | 258 kts | 140° |
| 2026-04-17 03:24 | 52.63082 | -128.11018 | 17005 ft | 258 kts | 141° |
| 2026-04-17 03:24 | 52.61690 | -128.09159 | 17007 ft | 257 kts | 141° |
| 2026-04-17 03:25 | 52.60294 | -128.07389 | 17016 ft | 246 kts | 143° |
| 2026-04-17 03:25 | 52.58952 | -128.05619 | 17005 ft | 250 kts | 140° |
| 2026-04-17 03:25 | 52.57602 | -128.03783 | 17001 ft | 252 kts | 141° |
| 2026-04-17 03:25 | 52.56229 | -128.01974 | 16997 ft | 253 kts | 142° |
| 2026-04-17 03:26 | 52.54846 | -128.00187 | 17010 ft | 254 kts | 141° |
| 2026-04-17 03:26 | 52.53463 | -127.98364 | 17006 ft | 254 kts | 141° |
| 2026-04-17 03:26 | 52.52079 | -127.96541 | 17013 ft | 256 kts | 141° |
| 2026-04-17 03:26 | 52.50691 | -127.94728 | 17009 ft | 256 kts | 141° |
| 2026-04-17 03:27 | 52.49290 | -127.92890 | 17009 ft | 257 kts | 141° |
| 2026-04-17 03:27 | 52.47915 | -127.91079 | 17005 ft | 257 kts | 141° |
| 2026-04-17 03:27 | 52.46501 | -127.89228 | 17008 ft | 256 kts | 142° |
| 2026-04-17 03:27 | 52.45118 | -127.87437 | 17000 ft | 257 kts | 141° |
| 2026-04-17 03:28 | 52.43720 | -127.85624 | 17011 ft | 257 kts | 141° |
| 2026-04-17 03:28 | 52.42329 | -127.83786 | 17007 ft | 258 kts | 141° |
| 2026-04-17 03:28 | 52.40934 | -127.81958 | 17011 ft | 257 kts | 142° |
| 2026-04-17 03:28 | 52.39530 | -127.80149 | 17007 ft | 256 kts | 141° |
| 2026-04-17 03:29 | 52.38129 | -127.78366 | 16997 ft | 254 kts | 141° |
| 2026-04-17 03:29 | 52.36761 | -127.76547 | 17000 ft | 254 kts | 140° |
| 2026-04-17 03:29 | 52.35385 | -127.74720 | 16998 ft | 255 kts | 141° |
| 2026-04-17 03:29 | 52.33988 | -127.72922 | 17001 ft | 256 kts | 142° |
| 2026-04-17 03:30 | 52.32582 | -127.71121 | 17005 ft | 257 kts | 141° |
| 2026-04-17 03:30 | 52.31182 | -127.69309 | 17008 ft | 257 kts | 141° |
| 2026-04-17 03:30 | 52.29783 | -127.67496 | 17004 ft | 257 kts | 141° |
| 2026-04-17 03:30 | 52.28378 | -127.65664 | 17005 ft | 258 kts | 141° |
| 2026-04-17 03:31 | 52.26971 | -127.63851 | 17009 ft | 257 kts | 141° |
| 2026-04-17 03:31 | 52.25546 | -127.62013 | 17010 ft | 258 kts | 142° |
| 2026-04-17 03:31 | 52.24159 | -127.60225 | 17005 ft | 258 kts | 141° |
| 2026-04-17 03:31 | 52.22752 | -127.58407 | 17010 ft | 258 kts | 141° |
| 2026-04-17 03:32 | 52.21339 | -127.56579 | 17006 ft | 259 kts | 141° |
| 2026-04-17 03:32 | 52.19923 | -127.54757 | 17004 ft | 259 kts | 141° |
| 2026-04-17 03:32 | 52.18509 | -127.52939 | 16999 ft | 258 kts | 141° |
| 2026-04-17 03:32 | 52.17098 | -127.51121 | 17000 ft | 258 kts | 142° |
| 2026-04-17 03:33 | 52.15682 | -127.49324 | 17000 ft | 258 kts | 141° |
| 2026-04-17 03:33 | 52.14273 | -127.47518 | 17002 ft | 258 kts | 141° |
| 2026-04-17 03:33 | 52.12870 | -127.45698 | 17002 ft | 258 kts | 141° |
| 2026-04-17 03:33 | 52.11459 | -127.43889 | 17002 ft | 258 kts | 142° |
| 2026-04-17 03:34 | 52.10044 | -127.42087 | 17011 ft | 259 kts | 142° |
| 2026-04-17 03:34 | 52.08627 | -127.40270 | 17010 ft | 259 kts | 141° |
| 2026-04-17 03:34 | 52.07213 | -127.38467 | 17006 ft | 259 kts | 141° |
| 2026-04-17 03:34 | 52.06278 | -127.37258 | 17004 ft | 260 kts | 141° |
| 2026-04-17 03:35 | 52.04842 | -127.35418 | 17002 ft | 259 kts | 142° |
| 2026-04-17 03:35 | 52.03409 | -127.33619 | 17004 ft | 261 kts | 141° |
| 2026-04-17 03:35 | 52.01982 | -127.31792 | 17015 ft | 260 kts | 141° |
| 2026-04-17 03:35 | 52.00562 | -127.29996 | 16994 ft | 254 kts | 141° |
| 2026-04-17 03:36 | 51.97800 | -127.26464 | 16989 ft | 255 kts | 142° |
| 2026-04-17 03:36 | 51.96412 | -127.24708 | 17010 ft | 253 kts | 142° |
| 2026-04-17 03:36 | 51.95038 | -127.22944 | 17000 ft | 257 kts | 140° |
| 2026-04-17 03:37 | 51.93628 | -127.21165 | 17003 ft | 255 kts | 143° |
| 2026-04-17 03:37 | 51.92226 | -127.19486 | 17002 ft | 248 kts | 143° |
| 2026-04-17 03:37 | 51.90858 | -127.17694 | 16999 ft | 252 kts | 140° |
| 2026-04-17 03:37 | 51.89505 | -127.15917 | 17004 ft | 255 kts | 141° |
| 2026-04-17 03:38 | 51.88094 | -127.14170 | 16989 ft | 256 kts | 143° |
| 2026-04-17 03:38 | 51.86695 | -127.12389 | 16993 ft | 257 kts | 142° |
| 2026-04-17 03:38 | 51.85287 | -127.10653 | 17003 ft | 253 kts | 143° |
| 2026-04-17 03:38 | 51.83896 | -127.08897 | 16989 ft | 257 kts | 141° |
| 2026-04-17 03:39 | 51.82485 | -127.07075 | 16989 ft | 260 kts | 141° |
| 2026-04-17 03:39 | 51.81048 | -127.05291 | 16995 ft | 262 kts | 142° |
| 2026-04-17 03:39 | 51.79616 | -127.03505 | 16985 ft | 258 kts | 142° |
| 2026-04-17 03:39 | 51.78197 | -127.01725 | 16996 ft | 259 kts | 141° |
| 2026-04-17 03:40 | 51.76770 | -126.99929 | 16990 ft | 260 kts | 142° |
| 2026-04-17 03:40 | 51.75344 | -126.98134 | 16974 ft | 260 kts | 142° |
| 2026-04-17 03:40 | 51.73925 | -126.96356 | 16979 ft | 258 kts | 142° |
| 2026-04-17 03:40 | 51.72502 | -126.94573 | 16971 ft | 257 kts | 141° |
| 2026-04-17 03:41 | 51.71085 | -126.92825 | 16977 ft | 256 kts | 141° |
| 2026-04-17 03:41 | 51.69690 | -126.91057 | 16975 ft | 256 kts | 141° |
| 2026-04-17 03:41 | 51.68289 | -126.89299 | 16978 ft | 255 kts | 142° |
| 2026-04-17 03:41 | 51.66884 | -126.87546 | 16974 ft | 256 kts | 142° |
| 2026-04-17 03:42 | 51.65478 | -126.85790 | 16997 ft | 256 kts | 142° |
| 2026-04-17 03:42 | 51.64061 | -126.84027 | 16994 ft | 258 kts | 142° |
| 2026-04-17 03:42 | 51.62639 | -126.82258 | 16996 ft | 259 kts | 142° |
| 2026-04-17 03:42 | 51.61204 | -126.80482 | 16997 ft | 260 kts | 142° |
| 2026-04-17 03:43 | 51.59787 | -126.78722 | 17000 ft | 258 kts | 141° |
| 2026-04-17 03:43 | 51.58363 | -126.76930 | 16997 ft | 259 kts | 141° |
| 2026-04-17 03:43 | 51.56941 | -126.75160 | 17000 ft | 256 kts | 142° |
| 2026-04-17 03:43 | 51.55516 | -126.73417 | 17005 ft | 259 kts | 141° |
| 2026-04-17 03:44 | 51.54101 | -126.71695 | 17014 ft | 252 kts | 142° |
| 2026-04-17 03:44 | 51.52711 | -126.69968 | 17006 ft | 254 kts | 140° |
| 2026-04-17 03:44 | 51.51322 | -126.68192 | 16997 ft | 256 kts | 141° |
| 2026-04-17 03:44 | 51.49906 | -126.66438 | 16996 ft | 258 kts | 142° |
| 2026-04-17 03:45 | 51.48499 | -126.64741 | 17006 ft | 254 kts | 142° |
| 2026-04-17 03:45 | 51.47096 | -126.63008 | 17001 ft | 255 kts | 142° |
| 2026-04-17 03:45 | 51.45690 | -126.61267 | 17002 ft | 257 kts | 142° |
| 2026-04-17 03:45 | 51.44274 | -126.59524 | 17001 ft | 255 kts | 142° |
| 2026-04-17 03:46 | 51.42860 | -126.57777 | 16997 ft | 257 kts | 142° |
| 2026-04-17 03:46 | 51.41437 | -126.56015 | 17002 ft | 260 kts | 141° |
| 2026-04-17 03:46 | 51.40007 | -126.54261 | 16998 ft | 258 kts | 142° |
| 2026-04-17 03:46 | 51.38576 | -126.52517 | 16996 ft | 258 kts | 142° |
| 2026-04-17 03:47 | 51.37154 | -126.50772 | 16982 ft | 255 kts | 143° |
| 2026-04-17 03:47 | 51.35745 | -126.49084 | 16999 ft | 255 kts | 141° |
| 2026-04-17 03:47 | 51.34354 | -126.47306 | 16989 ft | 256 kts | 141° |
| 2026-04-17 03:47 | 51.32941 | -126.45570 | 16990 ft | 256 kts | 142° |
| 2026-04-17 03:48 | 51.31521 | -126.43856 | 16987 ft | 258 kts | 143° |
| 2026-04-17 03:48 | 51.30087 | -126.42112 | 16997 ft | 260 kts | 141° |
| 2026-04-17 03:48 | 51.28659 | -126.40353 | 16988 ft | 258 kts | 142° |
| 2026-04-17 03:48 | 51.27226 | -126.38622 | 16994 ft | 260 kts | 142° |
| 2026-04-17 03:49 | 51.25782 | -126.36877 | 16994 ft | 259 kts | 142° |
| 2026-04-17 03:49 | 51.24346 | -126.35117 | 16988 ft | 261 kts | 142° |
| 2026-04-17 03:49 | 51.22913 | -126.33347 | 16990 ft | 261 kts | 141° |
| 2026-04-17 03:49 | 51.21469 | -126.31595 | 16988 ft | 260 kts | 142° |
| 2026-04-17 03:50 | 51.20035 | -126.29872 | 17005 ft | 258 kts | 141° |
| 2026-04-17 03:50 | 51.18599 | -126.28126 | 16993 ft | 261 kts | 141° |
| 2026-04-17 03:50 | 51.17160 | -126.26365 | 16982 ft | 259 kts | 142° |
| 2026-04-17 03:50 | 51.15733 | -126.24626 | 16990 ft | 260 kts | 141° |
| 2026-04-17 03:51 | 51.14294 | -126.22875 | 16987 ft | 261 kts | 142° |
| 2026-04-17 03:51 | 51.12852 | -126.21140 | 16991 ft | 260 kts | 142° |
| 2026-04-17 03:51 | 51.11409 | -126.19411 | 16982 ft | 259 kts | 142° |
| 2026-04-17 03:51 | 51.09970 | -126.17690 | 16981 ft | 259 kts | 142° |
| 2026-04-17 03:52 | 51.08548 | -126.15958 | 16984 ft | 256 kts | 141° |
| 2026-04-17 03:52 | 51.07132 | -126.14235 | 16989 ft | 258 kts | 142° |
| 2026-04-17 03:52 | 51.05697 | -126.12506 | 16988 ft | 259 kts | 142° |
| 2026-04-17 03:52 | 51.04263 | -126.10779 | 16989 ft | 256 kts | 141° |
| 2026-04-17 03:53 | 51.02838 | -126.09053 | 16989 ft | 259 kts | 142° |
| 2026-04-17 03:53 | 51.01395 | -126.07328 | 16989 ft | 261 kts | 142° |
| 2026-04-17 03:53 | 50.99943 | -126.05588 | 16988 ft | 262 kts | 142° |
| 2026-04-17 03:53 | 50.98492 | -126.03839 | 16983 ft | 263 kts | 142° |
| 2026-04-17 03:54 | 50.97030 | -126.02098 | 16987 ft | 263 kts | 142° |
| 2026-04-17 03:54 | 50.95569 | -126.00349 | 16982 ft | 263 kts | 142° |
| 2026-04-17 03:54 | 50.94128 | -125.98599 | 16984 ft | 258 kts | 142° |
| 2026-04-17 03:54 | 50.92697 | -125.96882 | 16984 ft | 258 kts | 142° |
| 2026-04-17 03:55 | 50.91266 | -125.95204 | 16982 ft | 260 kts | 142° |
| 2026-04-17 03:55 | 50.89839 | -125.93450 | 16975 ft | 261 kts | 141° |
| 2026-04-17 03:55 | 50.88391 | -125.91717 | 16964 ft | 260 kts | 142° |
| 2026-04-17 03:55 | 50.86962 | -125.90106 | 16989 ft | 248 kts | 143° |
| 2026-04-17 03:56 | 50.85574 | -125.88435 | 16972 ft | 253 kts | 141° |
| 2026-04-17 03:56 | 50.84185 | -125.86697 | 16979 ft | 255 kts | 141° |
| 2026-04-17 03:56 | 50.82761 | -125.85000 | 16981 ft | 258 kts | 143° |
| 2026-04-17 03:56 | 50.81324 | -125.83302 | 16963 ft | 258 kts | 141° |
| 2026-04-17 03:57 | 50.79893 | -125.81609 | 16983 ft | 259 kts | 143° |
| 2026-04-17 03:57 | 50.78441 | -125.79924 | 16985 ft | 259 kts | 141° |
| 2026-04-17 03:57 | 50.77020 | -125.78207 | 16985 ft | 257 kts | 142° |
| 2026-04-17 03:57 | 50.75564 | -125.76486 | 16984 ft | 259 kts | 142° |
| 2026-04-17 03:58 | 50.74146 | -125.74796 | 16988 ft | 258 kts | 142° |
| 2026-04-17 03:58 | 50.72709 | -125.73096 | 16986 ft | 259 kts | 143° |
| 2026-04-17 03:58 | 50.71246 | -125.71384 | 16976 ft | 259 kts | 142° |
| 2026-04-17 03:58 | 50.69801 | -125.69668 | 16980 ft | 259 kts | 142° |
| 2026-04-17 03:59 | 50.68358 | -125.67958 | 16985 ft | 260 kts | 142° |
| 2026-04-17 03:59 | 50.66924 | -125.66257 | 16987 ft | 261 kts | 142° |
| 2026-04-17 03:59 | 50.65458 | -125.64514 | 16977 ft | 263 kts | 141° |
| 2026-04-17 03:59 | 50.64002 | -125.62792 | 16980 ft | 262 kts | 142° |
| 2026-04-17 04:00 | 50.62529 | -125.61095 | 16980 ft | 261 kts | 142° |
| 2026-04-17 04:00 | 50.61074 | -125.59392 | 16982 ft | 261 kts | 142° |
| 2026-04-17 04:00 | 50.59638 | -125.57695 | 16979 ft | 261 kts | 142° |
| 2026-04-17 04:00 | 50.58202 | -125.55995 | 16989 ft | 255 kts | 142° |
| 2026-04-17 04:01 | 50.56779 | -125.54319 | 16985 ft | 257 kts | 142° |
| 2026-04-17 04:01 | 50.55334 | -125.52642 | 16985 ft | 259 kts | 142° |
| 2026-04-17 04:01 | 50.53888 | -125.50941 | 16988 ft | 260 kts | 142° |
| 2026-04-17 04:01 | 50.52434 | -125.49232 | 16985 ft | 262 kts | 142° |
| 2026-04-17 04:02 | 50.50970 | -125.47521 | 16986 ft | 263 kts | 142° |
| 2026-04-17 04:02 | 50.49501 | -125.45807 | 16983 ft | 263 kts | 142° |
| 2026-04-17 04:02 | 50.48038 | -125.44092 | 16979 ft | 263 kts | 142° |
| 2026-04-17 04:02 | 50.46573 | -125.42380 | 16974 ft | 261 kts | 142° |
| 2026-04-17 04:03 | 50.45118 | -125.40686 | 16980 ft | 261 kts | 142° |
| 2026-04-17 04:03 | 50.43656 | -125.38987 | 16980 ft | 261 kts | 142° |
| 2026-04-17 04:03 | 50.42199 | -125.37286 | 16981 ft | 262 kts | 142° |
| 2026-04-17 04:03 | 50.40744 | -125.35589 | 16981 ft | 262 kts | 142° |
| 2026-04-17 04:04 | 50.39271 | -125.33877 | 16970 ft | 262 kts | 142° |
| 2026-04-17 04:04 | 50.37810 | -125.32178 | 16971 ft | 262 kts | 142° |
| 2026-04-17 04:04 | 50.36348 | -125.30484 | 16972 ft | 262 kts | 142° |
| 2026-04-17 04:04 | 50.34882 | -125.28781 | 16970 ft | 262 kts | 142° |
| 2026-04-17 04:05 | 50.33415 | -125.27080 | 16972 ft | 262 kts | 142° |
| 2026-04-17 04:05 | 50.31948 | -125.25393 | 16971 ft | 262 kts | 142° |
| 2026-04-17 04:05 | 50.30490 | -125.23694 | 16971 ft | 262 kts | 142° |
| 2026-04-17 04:05 | 50.29026 | -125.21997 | 16970 ft | 262 kts | 142° |
| 2026-04-17 04:06 | 50.27562 | -125.20309 | 16970 ft | 262 kts | 142° |
| 2026-04-17 04:06 | 50.26096 | -125.18617 | 16970 ft | 262 kts | 142° |
| 2026-04-17 04:06 | 50.24631 | -125.16926 | 16970 ft | 262 kts | 142° |
| 2026-04-17 04:06 | 50.23163 | -125.15233 | 16975 ft | 263 kts | 142° |
| 2026-04-17 04:07 | 50.21688 | -125.13535 | 16973 ft | 263 kts | 142° |
| 2026-04-17 04:07 | 50.20213 | -125.11838 | 16972 ft | 263 kts | 142° |
| 2026-04-17 04:07 | 50.18739 | -125.10141 | 16971 ft | 263 kts | 142° |
| 2026-04-17 04:07 | 50.17274 | -125.08457 | 16972 ft | 263 kts | 142° |
| 2026-04-17 04:08 | 50.15788 | -125.06751 | 16974 ft | 263 kts | 142° |
| 2026-04-17 04:08 | 50.14316 | -125.05062 | 16974 ft | 263 kts | 142° |
| 2026-04-17 04:08 | 50.12841 | -125.03371 | 16973 ft | 263 kts | 142° |
| 2026-04-17 04:08 | 50.11364 | -125.01678 | 16971 ft | 263 kts | 142° |
| 2026-04-17 04:09 | 50.09893 | -124.99994 | 16973 ft | 262 kts | 142° |
| 2026-04-17 04:09 | 50.08421 | -124.98309 | 16971 ft | 263 kts | 142° |
| 2026-04-17 04:09 | 50.06945 | -124.96624 | 16973 ft | 263 kts | 142° |
| 2026-04-17 04:09 | 50.05469 | -124.94938 | 16972 ft | 263 kts | 142° |
| 2026-04-17 04:10 | 50.03995 | -124.93256 | 16975 ft | 263 kts | 142° |
| 2026-04-17 04:10 | 50.02521 | -124.91572 | 16974 ft | 263 kts | 142° |
| 2026-04-17 04:10 | 50.01043 | -124.89890 | 16973 ft | 263 kts | 142° |
| 2026-04-17 04:10 | 49.99565 | -124.88207 | 16975 ft | 263 kts | 142° |
| 2026-04-17 04:11 | 49.98086 | -124.86525 | 16975 ft | 263 kts | 142° |
| 2026-04-17 04:11 | 49.96613 | -124.84849 | 16963 ft | 262 kts | 142° |
| 2026-04-17 04:11 | 49.95138 | -124.83173 | 16963 ft | 262 kts | 142° |
| 2026-04-17 04:11 | 49.93668 | -124.81507 | 16969 ft | 262 kts | 142° |
| 2026-04-17 04:12 | 49.92195 | -124.79835 | 16970 ft | 262 kts | 142° |
| 2026-04-17 04:12 | 49.90724 | -124.78168 | 16978 ft | 262 kts | 142° |
| 2026-04-17 04:12 | 49.89254 | -124.76502 | 16979 ft | 262 kts | 142° |
| 2026-04-17 04:12 | 49.87781 | -124.74837 | 16979 ft | 262 kts | 142° |
| 2026-04-17 04:13 | 49.86309 | -124.73171 | 16979 ft | 262 kts | 142° |
| 2026-04-17 04:13 | 49.84856 | -124.71531 | 16981 ft | 262 kts | 142° |
| 2026-04-17 04:13 | 49.83364 | -124.69846 | 16981 ft | 262 kts | 142° |
| 2026-04-17 04:13 | 49.81910 | -124.68205 | 16972 ft | 262 kts | 142° |
| 2026-04-17 04:14 | 49.80435 | -124.66544 | 16972 ft | 262 kts | 142° |
| 2026-04-17 04:14 | 49.78960 | -124.64881 | 16972 ft | 262 kts | 142° |
| 2026-04-17 04:14 | 49.77481 | -124.63217 | 16973 ft | 263 kts | 142° |
| 2026-04-17 04:14 | 49.76003 | -124.61555 | 16977 ft | 263 kts | 142° |
| 2026-04-17 04:15 | 49.74523 | -124.59891 | 16974 ft | 263 kts | 142° |
| 2026-04-17 04:15 | 49.73023 | -124.58208 | 16976 ft | 264 kts | 142° |
| 2026-04-17 04:15 | 49.71557 | -124.56562 | 16975 ft | 264 kts | 142° |
| 2026-04-17 04:15 | 49.70073 | -124.54898 | 16974 ft | 264 kts | 142° |
| 2026-04-17 04:16 | 49.68587 | -124.53234 | 16977 ft | 264 kts | 142° |
| 2026-04-17 04:16 | 49.67104 | -124.51574 | 16978 ft | 263 kts | 142° |
| 2026-04-17 04:16 | 49.65622 | -124.49916 | 16978 ft | 263 kts | 142° |
| 2026-04-17 04:16 | 49.64140 | -124.48259 | 16978 ft | 263 kts | 142° |
| 2026-04-17 04:17 | 49.62655 | -124.46601 | 16980 ft | 263 kts | 142° |
| 2026-04-17 04:17 | 49.61172 | -124.44946 | 16979 ft | 263 kts | 142° |
| 2026-04-17 04:17 | 49.59691 | -124.43294 | 16980 ft | 263 kts | 142° |
| 2026-04-17 04:17 | 49.58205 | -124.41639 | 16979 ft | 263 kts | 142° |
| 2026-04-17 04:18 | 49.56723 | -124.39989 | 16977 ft | 263 kts | 143° |
| 2026-04-17 04:18 | 49.55237 | -124.38335 | 16977 ft | 263 kts | 142° |
| 2026-04-17 04:18 | 49.53760 | -124.36693 | 16972 ft | 263 kts | 143° |
| 2026-04-17 04:18 | 49.52276 | -124.35044 | 16972 ft | 263 kts | 143° |
| 2026-04-17 04:19 | 49.50789 | -124.33394 | 16973 ft | 263 kts | 143° |
| 2026-04-17 04:19 | 49.49800 | -124.32296 | 16971 ft | 264 kts | 143° |
| 2026-04-17 04:19 | 49.48295 | -124.30628 | 16974 ft | 264 kts | 143° |
| 2026-04-17 04:19 | 49.46805 | -124.28978 | 16974 ft | 264 kts | 143° |
| 2026-04-17 04:20 | 49.45338 | -124.27354 | 16972 ft | 263 kts | 143° |
| 2026-04-17 04:20 | 49.43858 | -124.25718 | 16972 ft | 262 kts | 143° |
| 2026-04-17 04:20 | 49.42375 | -124.24078 | 16972 ft | 262 kts | 143° |
| 2026-04-17 04:20 | 49.40897 | -124.22446 | 16971 ft | 262 kts | 143° |
| 2026-04-17 04:21 | 49.39416 | -124.20811 | 16971 ft | 262 kts | 143° |
| 2026-04-17 04:21 | 49.37939 | -124.19182 | 16971 ft | 262 kts | 143° |
| 2026-04-17 04:21 | 49.36458 | -124.17551 | 16971 ft | 262 kts | 143° |
| 2026-04-17 04:21 | 49.34978 | -124.15921 | 16971 ft | 262 kts | 143° |
| 2026-04-17 04:22 | 49.33500 | -124.14295 | 16971 ft | 262 kts | 143° |
| 2026-04-17 04:22 | 49.32020 | -124.12668 | 16971 ft | 262 kts | 143° |
| 2026-04-17 04:22 | 49.30538 | -124.11040 | 16973 ft | 262 kts | 143° |
| 2026-04-17 04:22 | 49.29061 | -124.09418 | 16973 ft | 262 kts | 143° |
| 2026-04-17 04:23 | 49.27580 | -124.07793 | 16974 ft | 262 kts | 143° |
| 2026-04-17 04:23 | 49.26099 | -124.06171 | 16975 ft | 262 kts | 143° |
| 2026-04-17 04:23 | 49.24622 | -124.04553 | 16978 ft | 262 kts | 143° |
| 2026-04-17 04:23 | 49.23141 | -124.02932 | 16976 ft | 262 kts | 143° |
| 2026-04-17 04:24 | 49.21654 | -124.01306 | 16985 ft | 262 kts | 143° |
| 2026-04-17 04:24 | 49.20174 | -123.99689 | 16985 ft | 262 kts | 143° |
| 2026-04-17 04:24 | 49.18698 | -123.98077 | 16985 ft | 262 kts | 143° |
| 2026-04-17 04:24 | 49.17215 | -123.96458 | 16985 ft | 262 kts | 143° |
| 2026-04-17 04:25 | 49.15730 | -123.94840 | 16985 ft | 262 kts | 143° |
| 2026-04-17 04:25 | 49.14252 | -123.93231 | 16986 ft | 261 kts | 143° |
| 2026-04-17 04:25 | 49.12769 | -123.91615 | 16986 ft | 261 kts | 143° |
| 2026-04-17 04:25 | 49.11285 | -123.89999 | 16986 ft | 262 kts | 143° |
| 2026-04-17 04:26 | 49.09802 | -123.88389 | 16986 ft | 262 kts | 143° |
| 2026-04-17 04:26 | 49.08319 | -123.86780 | 16986 ft | 262 kts | 143° |
| 2026-04-17 04:26 | 49.06836 | -123.85168 | 16988 ft | 262 kts | 143° |
| 2026-04-17 04:26 | 49.05350 | -123.83555 | 16990 ft | 262 kts | 143° |
| 2026-04-17 04:27 | 49.03864 | -123.81945 | 16990 ft | 263 kts | 143° |
| 2026-04-17 04:27 | 49.02373 | -123.80330 | 16989 ft | 263 kts | 143° |
| 2026-04-17 04:27 | 49.00883 | -123.78718 | 16990 ft | 263 kts | 143° |
| 2026-04-17 04:27 | 48.99394 | -123.77109 | 16989 ft | 262 kts | 143° |
| 2026-04-17 04:28 | 48.97908 | -123.75502 | 16990 ft | 262 kts | 143° |
| 2026-04-17 04:28 | 48.96418 | -123.73894 | 16991 ft | 262 kts | 143° |
| 2026-04-17 04:28 | 48.94933 | -123.72290 | 16991 ft | 262 kts | 143° |
| 2026-04-17 04:28 | 48.93442 | -123.70684 | 16991 ft | 262 kts | 143° |
| 2026-04-17 04:29 | 48.91952 | -123.69078 | 16992 ft | 262 kts | 143° |
| 2026-04-17 04:29 | 48.90468 | -123.67480 | 16992 ft | 262 kts | 143° |
| 2026-04-17 04:29 | 48.88976 | -123.65876 | 16993 ft | 262 kts | 143° |
| 2026-04-17 04:29 | 48.87490 | -123.64278 | 16993 ft | 263 kts | 143° |
| 2026-04-17 04:30 | 48.85995 | -123.62673 | 16996 ft | 263 kts | 143° |
| 2026-04-17 04:30 | 48.84491 | -123.61058 | 16998 ft | 264 kts | 143° |
| 2026-04-17 04:30 | 48.82989 | -123.59445 | 16992 ft | 264 kts | 143° |
| 2026-04-17 04:30 | 48.81505 | -123.57849 | 16995 ft | 261 kts | 143° |
| 2026-04-17 04:31 | 48.80018 | -123.56268 | 16995 ft | 262 kts | 143° |
| 2026-04-17 04:31 | 48.78528 | -123.54674 | 16997 ft | 262 kts | 143° |
| 2026-04-17 04:31 | 48.77032 | -123.53081 | 16994 ft | 264 kts | 143° |
| 2026-04-17 04:31 | 48.75538 | -123.51475 | 16996 ft | 263 kts | 143° |
| 2026-04-17 04:32 | 48.74045 | -123.49858 | 16994 ft | 263 kts | 143° |
| 2026-04-17 04:32 | 48.72533 | -123.48279 | 16994 ft | 264 kts | 147° |
| 2026-04-17 04:32 | 48.70977 | -123.46843 | 16994 ft | 263 kts | 148° |
| 2026-04-17 04:32 | 48.69416 | -123.45379 | 16995 ft | 263 kts | 147° |
| 2026-04-17 04:33 | 48.67863 | -123.43915 | 16996 ft | 264 kts | 147° |
| 2026-04-17 04:33 | 48.66298 | -123.42449 | 16996 ft | 264 kts | 148° |
| 2026-04-17 04:33 | 48.64735 | -123.40992 | 16996 ft | 265 kts | 148° |
| 2026-04-17 04:33 | 48.63165 | -123.39526 | 16996 ft | 265 kts | 148° |
| 2026-04-17 04:34 | 48.60031 | -123.36603 | 16997 ft | 265 kts | 148° |
| 2026-04-17 04:34 | 48.58464 | -123.35143 | 16997 ft | 265 kts | 148° |
| 2026-04-17 04:34 | 48.56898 | -123.33686 | 16997 ft | 265 kts | 148° |
| 2026-04-17 04:35 | 48.55326 | -123.32224 | 16996 ft | 265 kts | 148° |
| 2026-04-17 04:35 | 48.53760 | -123.30767 | 16996 ft | 265 kts | 148° |
| 2026-04-17 04:35 | 48.52214 | -123.29331 | 16997 ft | 265 kts | 148° |
| 2026-04-17 04:35 | 48.50643 | -123.27874 | 17015 ft | 265 kts | 148° |
| 2026-04-17 04:36 | 48.49067 | -123.26412 | 17015 ft | 265 kts | 148° |
| 2026-04-17 04:36 | 48.47500 | -123.24960 | 17015 ft | 265 kts | 148° |
| 2026-04-17 04:36 | 48.45926 | -123.23501 | 17015 ft | 265 kts | 148° |
| 2026-04-17 04:36 | 48.44359 | -123.22052 | 17013 ft | 265 kts | 148° |
| 2026-04-17 04:37 | 48.42764 | -123.20577 | 17013 ft | 265 kts | 148° |
| 2026-04-17 04:37 | 48.41214 | -123.19145 | 17011 ft | 265 kts | 148° |
| 2026-04-17 04:37 | 48.39638 | -123.17689 | 17010 ft | 265 kts | 148° |
| 2026-04-17 04:37 | 48.38080 | -123.16252 | 17008 ft | 265 kts | 148° |
| 2026-04-17 04:38 | 48.36499 | -123.14794 | 17000 ft | 265 kts | 148° |
| 2026-04-17 04:38 | 48.34929 | -123.13348 | 16996 ft | 265 kts | 148° |
| 2026-04-17 04:38 | 48.33331 | -123.11877 | 16993 ft | 265 kts | 148° |
| 2026-04-17 04:38 | 48.31757 | -123.10431 | 16989 ft | 265 kts | 148° |
| 2026-04-17 04:39 | 48.30180 | -123.08982 | 16986 ft | 265 kts | 148° |
| 2026-04-17 04:39 | 48.28625 | -123.07556 | 16972 ft | 265 kts | 148° |
| 2026-04-17 04:39 | 48.27050 | -123.06111 | 16968 ft | 265 kts | 148° |
| 2026-04-17 04:39 | 48.25476 | -123.04668 | 16973 ft | 265 kts | 148° |
| 2026-04-17 04:40 | 48.23877 | -123.03205 | 16579 ft | 269 kts | 148° |
| 2026-04-17 04:40 | 48.22296 | -123.01760 | 16192 ft | 262 kts | 148° |
| 2026-04-17 04:40 | 48.20763 | -123.00358 | 15791 ft | 256 kts | 148° |
| 2026-04-17 04:40 | 48.19260 | -122.98984 | 15406 ft | 251 kts | 148° |
| 2026-04-17 04:41 | 48.17786 | -122.97637 | 15028 ft | 247 kts | 148° |
| 2026-04-17 04:41 | 48.16323 | -122.96303 | 14656 ft | 244 kts | 148° |
| 2026-04-17 04:41 | 48.14881 | -122.94987 | 14282 ft | 241 kts | 149° |
| 2026-04-17 04:41 | 48.13461 | -122.93695 | 13896 ft | 239 kts | 149° |
| 2026-04-17 04:42 | 48.12035 | -122.92395 | 13479 ft | 236 kts | 149° |
| 2026-04-17 04:42 | 48.10652 | -122.91136 | 13077 ft | 234 kts | 149° |
| 2026-04-17 04:42 | 48.09269 | -122.89879 | 12674 ft | 231 kts | 149° |
| 2026-04-17 04:42 | 48.07905 | -122.88640 | 12276 ft | 228 kts | 149° |
| 2026-04-17 04:43 | 48.06558 | -122.87416 | 11915 ft | 224 kts | 149° |
| 2026-04-17 04:43 | 48.05281 | -122.86255 | 11861 ft | 208 kts | 149° |
| 2026-04-17 04:43 | 48.04094 | -122.85089 | 11713 ft | 202 kts | 138° |
| 2026-04-17 04:43 | 48.03236 | -122.83489 | 11573 ft | 196 kts | 119° |
| 2026-04-17 04:44 | 48.02504 | -122.81772 | 11435 ft | 194 kts | 120° |
| 2026-04-17 04:44 | 48.01774 | -122.80096 | 11372 ft | 191 kts | 120° |
| 2026-04-17 04:44 | 48.01057 | -122.78438 | 11241 ft | 189 kts | 120° |
| 2026-04-17 04:44 | 48.00344 | -122.76788 | 11111 ft | 188 kts | 120° |
| 2026-04-17 04:45 | 47.99626 | -122.75126 | 10997 ft | 197 kts | 120° |
| 2026-04-17 04:45 | 47.98866 | -122.73366 | 10980 ft | 205 kts | 120° |
| 2026-04-17 04:45 | 47.98234 | -122.71460 | 10980 ft | 206 kts | 105° |
| 2026-04-17 04:45 | 47.97760 | -122.69393 | 10780 ft | 218 kts | 106° |
| 2026-04-17 04:46 | 47.97235 | -122.67218 | 10537 ft | 225 kts | 107° |
| 2026-04-17 04:46 | 47.96708 | -122.65043 | 10275 ft | 221 kts | 107° |
| 2026-04-17 04:46 | 47.96202 | -122.62936 | 9982 ft | 210 kts | 107° |
| 2026-04-17 04:46 | 47.95720 | -122.60924 | 9664 ft | 202 kts | 108° |
| 2026-04-17 04:47 | 47.95253 | -122.58973 | 9360 ft | 197 kts | 108° |
| 2026-04-17 04:47 | 47.94795 | -122.57068 | 9070 ft | 193 kts | 108° |
| 2026-04-17 04:47 | 47.94346 | -122.55199 | 8808 ft | 189 kts | 108° |
| 2026-04-17 04:47 | 47.93906 | -122.53373 | 8575 ft | 187 kts | 108° |
| 2026-04-17 04:48 | 47.93468 | -122.51554 | 8336 ft | 185 kts | 109° |
| 2026-04-17 04:48 | 47.93035 | -122.49757 | 8097 ft | 184 kts | 109° |
| 2026-04-17 04:48 | 47.92500 | -122.48064 | 7990 ft | 176 kts | 128° |
| 2026-04-17 04:48 | 47.91632 | -122.46886 | 7984 ft | 165 kts | 151° |
| 2026-04-17 04:49 | 47.90605 | -122.46253 | 7988 ft | 156 kts | 170° |
| 2026-04-17 04:49 | 47.89551 | -122.46048 | 7984 ft | 152 kts | 170° |
| 2026-04-17 04:49 | 47.88557 | -122.45531 | 7961 ft | 153 kts | 162° |
| 2026-04-17 04:49 | 47.87486 | -122.44990 | 7797 ft | 171 kts | 165° |
| 2026-04-17 04:50 | 47.86308 | -122.44448 | 7645 ft | 181 kts | 165° |
| 2026-04-17 04:50 | 47.85096 | -122.43900 | 7488 ft | 182 kts | 165° |
| 2026-04-17 04:50 | 47.83889 | -122.43354 | 7321 ft | 181 kts | 165° |
| 2026-04-17 04:50 | 47.82691 | -122.42812 | 7149 ft | 180 kts | 165° |
| 2026-04-17 04:51 | 47.81493 | -122.42271 | 6976 ft | 179 kts | 165° |
| 2026-04-17 04:51 | 47.80305 | -122.41734 | 6800 ft | 177 kts | 165° |
| 2026-04-17 04:51 | 47.79133 | -122.41205 | 6617 ft | 175 kts | 165° |
| 2026-04-17 04:51 | 47.77974 | -122.40682 | 6428 ft | 173 kts | 165° |
| 2026-04-17 04:52 | 47.76832 | -122.40148 | 6238 ft | 172 kts | 160° |
| 2026-04-17 04:52 | 47.75753 | -122.39382 | 6037 ft | 172 kts | 155° |
| 2026-04-17 04:52 | 47.74673 | -122.38606 | 5803 ft | 173 kts | 156° |
| 2026-04-17 04:52 | 47.73590 | -122.37836 | 5572 ft | 173 kts | 156° |
| 2026-04-17 04:53 | 47.72507 | -122.37072 | 5344 ft | 172 kts | 155° |
| 2026-04-17 04:53 | 47.71441 | -122.36311 | 5112 ft | 168 kts | 155° |
| 2026-04-17 04:53 | 47.70399 | -122.35569 | 4870 ft | 165 kts | 155° |
| 2026-04-17 04:55 | 47.62913 | -122.31650 | 3611 ft | 167 kts | 181° |
| 2026-04-17 04:55 | 47.61692 | -122.31655 | 3401 ft | 182 kts | 181° |
| 2026-04-17 04:55 | 47.60404 | -122.31666 | 3216 ft | 186 kts | 181° |
| 2026-04-17 04:56 | 47.59122 | -122.31677 | 3208 ft | 183 kts | 181° |
| 2026-04-17 04:56 | 47.57873 | -122.31688 | 3186 ft | 182 kts | 181° |
| 2026-04-17 04:56 | 47.56535 | -122.31718 | 2798 ft | 196 kts | 182° |
| 2026-04-17 04:56 | 47.55140 | -122.31778 | 2320 ft | 204 kts | 182° |
| 2026-04-17 04:57 | 47.53705 | -122.31814 | 1814 ft | 207 kts | 182° |
| 2026-04-17 04:57 | 47.52337 | -122.31789 | 1705 ft | 191 kts | 181° |
| 2026-04-17 04:57 | 47.51020 | -122.31785 | 1397 ft | 177 kts | 181° |
| 2026-04-17 04:57 | 47.49917 | -122.31760 | 1209 ft | 148 kts | 181° |
| 2026-04-17 04:58 | 47.48869 | -122.31741 | 987 ft | 149 kts | 183° |
| 2026-04-17 04:58 | 47.47858 | -122.31767 | 822 ft | 146 kts | 183° |
| 2026-04-17 04:58 | 47.46891 | -122.31775 | 591 ft | 122 kts | 184° |
| 2026-04-17 04:58 | 47.46100 | -122.31787 | 448 ft | 108 kts | 185° |
| 2026-04-17 04:59 | 47.45398 | -122.31793 | 407 ft | 91 kts | 186° |
| 2026-04-17 04:59 | 47.44865 | -122.31804 | 388 ft | 62 kts | 180° |
| 2026-04-17 04:59 | 47.44509 | -122.31811 | 388 ft | 40 kts | 181° |
| 2026-04-17 04:59 | 47.44270 | -122.31720 | 388 ft | 35 kts | 154° |
| 2026-04-17 05:00 | 47.44188 | -122.31654 | 388 ft | 0 kts | 149° |
| 2026-04-17 05:01 | 47.44186 | -122.31652 | 388 ft | 3 kts | 149° |
| 2026-04-17 05:02 | 47.44136 | -122.31612 | 388 ft | 20 kts | 153° |
| 2026-04-17 05:02 | 47.43981 | -122.31520 | 388 ft | 27 kts | 174° |
| 2026-04-17 05:02 | 47.43888 | -122.31499 | 388 ft | 0 kts | 23° |